Time;durP1;ratioP1;P1;durP2;ratioP2;P2;SDS_P1;SDS_P2;PMS_P1;PMS_P2;Temp;Humidity;BMP_temperature;BMP_pressure;BME280_temperature;BME280_humidity;BME280_pressure;Samples;Min_cycle;Max_cycle;Signal;HPM_P1;HPM_P2
2022/11/17 00:00:20;;;;;;;8.27;6.32;;;6.60;99.90;;;;;;5006224;28;21118;-70
2022/11/17 00:02:47;;;;;;;10.45;6.63;;;6.60;99.90;;;;;;5009134;28;20108;-69
2022/11/17 00:05:15;;;;;;;8.57;6.22;;;6.60;99.90;;;;;;5009864;28;20135;-69
2022/11/17 00:07:41;;;;;;;8.10;5.97;;;6.60;99.90;;;;;;5007203;28;20049;-69
2022/11/17 00:10:07;;;;;;;8.50;5.68;;;6.60;99.90;;;;;;5009604;28;20125;-69
2022/11/17 00:15:18;;;;;;;7.72;5.97;;;6.60;99.90;;;;;;5010176;28;20061;-69
2022/11/17 00:17:47;;;;;;;7.55;5.90;;;6.50;99.90;;;;;;4992235;28;20064;-68
2022/11/17 00:22:58;;;;;;;8.43;6.95;;;6.50;99.90;;;;;;5008336;28;20077;-69
2022/11/17 00:25:24;;;;;;;10.88;7.13;;;6.50;99.90;;;;;;5010656;28;20084;-69
2022/11/17 00:27:51;;;;;;;9.77;7.25;;;6.60;99.90;;;;;;4988017;28;20069;-69
2022/11/17 00:35:51;;;;;;;7.93;5.95;;;6.50;99.90;;;;;;5005984;28;20072;-69
2022/11/17 00:38:17;;;;;;;8.43;6.15;;;6.50;99.90;;;;;;5008152;28;20656;-69
2022/11/17 00:40:43;;;;;;;7.72;5.30;;;6.50;99.90;;;;;;5008664;28;20041;-68
2022/11/17 00:43:09;;;;;;;6.63;5.10;;;6.50;99.90;;;;;;4989953;28;20539;-69
2022/11/17 00:45:35;;;;;;;6.63;5.22;;;6.60;99.90;;;;;;5008566;28;20046;-69
2022/11/17 00:48:01;;;;;;;7.68;5.82;;;6.50;99.90;;;;;;5008980;28;20050;-69
2022/11/17 00:50:27;;;;;;;8.07;5.18;;;6.50;99.90;;;;;;5003843;28;20844;-72
2022/11/17 00:52:52;;;;;;;6.05;4.95;;;6.40;99.90;;;;;;4976802;28;20056;-70
2022/11/17 00:55:18;;;;;;;7.60;5.28;;;6.50;99.90;;;;;;5008509;28;20041;-68
2022/11/17 00:57:44;;;;;;;7.85;5.38;;;6.50;99.90;;;;;;5008483;28;20056;-69
2022/11/17 01:00:10;;;;;;;6.53;4.80;;;6.50;99.90;;;;;;5008085;28;20038;-69
2022/11/17 01:02:36;;;;;;;7.30;5.28;;;6.40;99.90;;;;;;5025253;28;20173;-69
2022/11/17 01:05:03;;;;;;;7.55;5.10;;;6.40;99.90;;;;;;5009535;28;20137;-69
2022/11/17 01:07:28;;;;;;;7.80;4.70;;;6.40;99.90;;;;;;5007880;28;20590;-69
2022/11/17 01:09:54;;;;;;;6.72;5.30;;;6.50;99.90;;;;;;4988801;28;20141;-69
2022/11/17 01:12:20;;;;;;;6.05;4.63;;;6.50;99.90;;;;;;5020369;28;20045;-68
2022/11/17 01:14:45;;;;;;;6.53;5.18;;;6.50;99.90;;;;;;5006543;28;20046;-69
2022/11/17 01:17:11;;;;;;;6.55;4.95;;;6.40;99.90;;;;;;5008500;28;20053;-69
2022/11/17 01:19:37;;;;;;;7.00;4.88;;;6.30;99.90;;;;;;5004928;28;20056;-71
2022/11/17 01:22:03;;;;;;;7.97;5.35;;;6.40;99.90;;;;;;5006047;28;20049;-69
2022/11/17 01:24:28;;;;;;;7.28;5.55;;;6.40;99.90;;;;;;5008535;28;20345;-69
2022/11/17 01:26:54;;;;;;;7.80;5.45;;;6.50;99.90;;;;;;5024926;28;20467;-70
2022/11/17 01:29:20;;;;;;;8.23;5.88;;;6.50;99.90;;;;;;5005363;28;20468;-70
2022/11/17 01:31:49;;;;;;;8.43;6.47;;;6.50;99.90;;;;;;5006300;28;20046;-69
2022/11/17 01:34:14;;;;;;;8.05;6.07;;;6.40;99.90;;;;;;5007737;28;20054;-69
2022/11/17 01:39:26;;;;;;;8.38;7.03;;;6.20;99.90;;;;;;5011286;28;20099;-69
2022/11/17 01:41:52;;;;;;;9.57;7.28;;;6.20;99.90;;;;;;5008169;28;20053;-71
2022/11/17 01:44:40;;;;;;;8.23;6.72;;;6.30;99.90;;;;;;5006139;28;20056;-70
2022/11/17 01:47:32;;;;;;;8.45;6.50;;;6.30;99.90;;;;;;5008056;28;20065;-70
2022/11/17 01:50:20;;;;;;;9.07;7.00;;;6.30;99.90;;;;;;5007762;28;20046;-70
2022/11/17 01:52:46;;;;;;;9.30;7.40;;;6.30;99.90;;;;;;4987626;28;20492;-71
2022/11/17 01:55:12;;;;;;;10.10;6.60;;;6.30;99.90;;;;;;4975733;28;20085;-70
2022/11/17 01:57:43;;;;;;;9.85;7.45;;;6.30;99.90;;;;;;5005151;28;20081;-70
2022/11/17 02:00:09;;;;;;;10.63;7.07;;;6.30;99.90;;;;;;5004267;28;20045;-70
2022/11/17 02:02:35;;;;;;;8.38;6.63;;;6.30;99.90;;;;;;5012617;28;20050;-70
2022/11/17 02:05:04;;;;;;;8.88;6.88;;;6.20;99.90;;;;;;5011706;28;20111;-70
2022/11/17 02:07:32;;;;;;;10.38;7.30;;;6.20;99.90;;;;;;5010907;28;20108;-70
2022/11/17 02:09:57;;;;;;;9.05;6.68;;;6.10;99.90;;;;;;4995318;28;20080;-70
2022/11/17 02:12:24;;;;;;;8.25;6.15;;;6.20;99.90;;;;;;5011181;28;20049;-71
2022/11/17 02:14:50;;;;;;;9.60;6.80;;;6.20;99.90;;;;;;4994439;28;20050;-70
2022/11/17 02:17:16;;;;;;;9.30;7.65;;;6.30;99.90;;;;;;5011671;28;20129;-70
2022/11/17 02:19:43;;;;;;;11.60;7.50;;;6.20;99.90;;;;;;4995278;28;20566;-70
2022/11/17 02:22:30;;;;;;;10.30;6.90;;;6.20;99.90;;;;;;4995467;28;20042;-70
2022/11/17 02:25:06;;;;;;;10.05;7.10;;;6.20;99.90;;;;;;5008333;28;20042;-69
2022/11/17 02:28:08;;;;;;;9.80;7.15;;;6.30;99.90;;;;;;5011098;28;20486;-68
2022/11/17 02:30:40;;;;;;;10.10;6.90;;;6.20;99.90;;;;;;5010986;28;20076;-69
2022/11/17 02:33:13;;;;;;;15.98;7.35;;;6.20;99.90;;;;;;5027935;28;20089;-69
2022/11/17 02:36:05;;;;;;;9.02;7.13;;;6.20;99.90;;;;;;5024263;28;20116;-69
2022/11/17 02:38:48;;;;;;;10.15;7.35;;;6.20;99.90;;;;;;5010219;28;20388;-69
2022/11/17 02:41:43;;;;;;;11.98;8.50;;;6.20;99.90;;;;;;5005294;28;20041;-68
2022/11/17 02:44:38;;;;;;;12.00;8.07;;;6.20;99.90;;;;;;5039599;28;20056;-68
2022/11/17 02:47:28;;;;;;;11.48;8.40;;;6.20;99.90;;;;;;5011022;28;20479;-69
2022/11/17 02:50:17;;;;;;;14.65;9.00;;;6.30;99.90;;;;;;5009704;28;20576;-69
2022/11/17 02:52:42;;;;;;;10.93;8.00;;;6.30;99.90;;;;;;5008214;28;20384;-69
2022/11/17 02:55:09;;;;;;;11.23;8.27;;;6.30;99.90;;;;;;5010125;28;20061;-69
2022/11/17 02:57:36;;;;;;;11.02;7.28;;;6.30;99.90;;;;;;5010016;28;20527;-68
2022/11/17 03:00:14;;;;;;;12.43;8.25;;;6.20;99.90;;;;;;5006768;28;20053;-69
2022/11/17 03:03:14;;;;;;;11.30;7.75;;;6.20;99.90;;;;;;5007394;28;20052;-69
2022/11/17 03:05:58;;;;;;;12.20;7.53;;;6.20;99.90;;;;;;5020506;28;20132;-70
2022/11/17 03:08:58;;;;;;;10.35;7.53;;;6.20;99.90;;;;;;5010928;28;20079;-69
2022/11/17 03:11:38;;;;;;;10.32;7.35;;;6.20;99.90;;;;;;5009975;28;20830;-71
2022/11/17 03:14:09;;;;;;;10.77;8.40;;;6.00;99.90;;;;;;5007722;28;20148;-68
2022/11/17 03:16:37;;;;;;;11.18;7.25;;;6.10;99.90;;;;;;5007299;28;20073;-70
2022/11/17 03:19:38;;;;;;;9.07;7.23;;;6.20;99.90;;;;;;4991855;28;20042;-69
2022/11/17 03:22:23;;;;;;;10.35;7.85;;;6.20;99.90;;;;;;5004664;28;20627;-69
2022/11/17 03:24:51;;;;;;;10.93;6.80;;;6.10;99.90;;;;;;5010009;28;20057;-69
2022/11/17 03:27:24;;;;;;;9.32;7.07;;;6.10;99.90;;;;;;5010224;28;20085;-69
2022/11/17 03:29:52;;;;;;;11.07;7.45;;;6.10;99.90;;;;;;5008555;28;20061;-69
2022/11/17 03:32:18;;;;;;;9.75;6.95;;;6.00;99.90;;;;;;5010224;28;20046;-70
2022/11/17 03:35:06;;;;;;;10.90;7.60;;;6.10;99.90;;;;;;5009734;28;20138;-70
2022/11/17 03:37:33;;;;;;;12.18;8.10;;;6.00;99.90;;;;;;5007459;28;20061;-69
2022/11/17 03:40:06;;;;;;;10.45;7.95;;;5.90;99.90;;;;;;5009120;28;20042;-70
2022/11/17 03:42:36;;;;;;;11.48;8.18;;;6.00;99.90;;;;;;5009338;28;20061;-69
2022/11/17 03:45:10;;;;;;;10.82;7.85;;;5.90;99.90;;;;;;5009582;28;20555;-70
2022/11/17 03:47:37;;;;;;;11.85;7.93;;;5.90;99.90;;;;;;4993141;28;20050;-69
2022/11/17 03:50:07;;;;;;;11.50;8.07;;;5.90;99.90;;;;;;4993551;28;20052;-70
2022/11/17 03:52:33;;;;;;;11.60;8.27;;;5.70;99.90;;;;;;5011010;28;20471;-71
2022/11/17 03:54:59;;;;;;;11.82;8.35;;;5.70;99.90;;;;;;5008925;28;20050;-69
2022/11/17 03:57:43;;;;;;;13.70;9.32;;;5.80;99.90;;;;;;5009201;28;20038;-70
2022/11/17 04:00:13;;;;;;;11.95;9.05;;;5.80;99.90;;;;;;4992959;28;20053;-70
2022/11/17 04:02:43;;;;;;;14.30;8.93;;;5.90;99.90;;;;;;4993084;28;20452;-69
2022/11/17 04:05:09;;;;;;;12.27;8.85;;;5.90;99.90;;;;;;4988581;28;20045;-70
2022/11/17 04:07:41;;;;;;;12.60;9.45;;;6.00;99.90;;;;;;5009744;28;20045;-69
2022/11/17 04:10:17;;;;;;;14.90;9.75;;;6.00;99.90;;;;;;5009472;28;20379;-70
2022/11/17 04:18:13;;;;;;;11.82;8.65;;;5.90;99.90;;;;;;5009103;28;20057;-70
2022/11/17 04:20:39;;;;;;;12.55;8.82;;;5.90;99.90;;;;;;5005183;28;20046;-70
2022/11/17 04:23:05;;;;;;;14.00;10.38;;;5.80;99.90;;;;;;5009775;28;20099;-70
2022/11/17 04:28:38;;;;;;;16.33;10.07;;;5.90;99.90;;;;;;4997035;28;20112;-70
2022/11/17 04:31:11;;;;;;;19.27;10.13;;;5.80;99.90;;;;;;4993498;28;20390;-69
2022/11/17 04:33:40;;;;;;;13.85;9.80;;;5.80;99.90;;;;;;5009451;28;20081;-70
2022/11/17 04:36:06;;;;;;;15.07;9.88;;;5.80;99.90;;;;;;4991380;28;20106;-69
2022/11/17 04:38:31;;;;;;;12.88;8.82;;;5.70;99.90;;;;;;5010772;28;20045;-69
2022/11/17 04:43:50;;;;;;;16.48;9.13;;;5.60;99.90;;;;;;5007761;28;20045;-69
2022/11/17 04:46:17;;;;;;;13.70;9.00;;;5.60;99.90;;;;;;5007988;28;20140;-69
2022/11/17 04:48:55;;;;;;;13.48;9.63;;;5.60;99.90;;;;;;4992797;28;20467;-69
2022/11/17 04:51:21;;;;;;;13.82;9.38;;;5.60;99.90;;;;;;5007781;28;20077;-69
2022/11/17 04:53:47;;;;;;;14.00;9.15;;;5.70;99.90;;;;;;4992167;28;20080;-70
2022/11/17 04:56:13;;;;;;;13.68;9.52;;;5.60;99.90;;;;;;4991937;28;20050;-69
2022/11/17 04:58:39;;;;;;;14.73;9.55;;;5.50;99.90;;;;;;4988775;28;20423;-70
2022/11/17 05:01:11;;;;;;;13.73;8.88;;;5.40;99.90;;;;;;5024984;28;20045;-70
2022/11/17 05:03:43;;;;;;;17.08;10.32;;;5.50;99.90;;;;;;5009698;28;20141;-69
2022/11/17 05:06:26;;;;;;;16.83;10.45;;;5.40;99.90;;;;;;4992758;28;20108;-72
2022/11/17 05:08:56;;;;;;;13.35;9.82;;;5.50;99.90;;;;;;5005584;28;20042;-72
2022/11/17 05:14:07;;;;;;;13.77;9.48;;;5.40;99.90;;;;;;5009675;28;20053;-68
2022/11/17 05:19:19;;;;;;;15.10;10.32;;;5.40;99.90;;;;;;5009412;28;20049;-68
2022/11/17 05:21:45;;;;;;;16.13;12.00;;;5.40;99.90;;;;;;4987001;28;20046;-70
2022/11/17 05:24:13;;;;;;;18.48;12.27;;;5.50;99.90;;;;;;5009944;28;20080;-70
2022/11/17 05:26:39;;;;;;;16.37;12.00;;;5.50;99.90;;;;;;4991469;28;20041;-71
2022/11/17 05:29:05;;;;;;;19.08;12.63;;;5.50;99.90;;;;;;5008505;28;20053;-71
2022/11/17 05:31:31;;;;;;;20.08;13.30;;;5.50;99.90;;;;;;5024965;28;20103;-71
2022/11/17 05:33:56;;;;;;;20.60;12.85;;;5.50;99.90;;;;;;5007490;28;20423;-71
2022/11/17 05:36:23;;;;;;;21.63;13.70;;;5.40;99.90;;;;;;4994078;28;20050;-71
2022/11/17 05:38:48;;;;;;;18.33;12.88;;;5.40;99.90;;;;;;5012748;28;20045;-72
2022/11/17 05:41:16;;;;;;;19.55;13.30;;;5.30;99.90;;;;;;5011576;28;20046;-69
2022/11/17 05:43:42;;;;;;;22.23;13.25;;;5.40;99.90;;;;;;5012402;28;20045;-69
2022/11/17 05:46:07;;;;;;;20.63;14.27;;;5.40;99.90;;;;;;5010902;28;20046;-70
2022/11/17 05:48:33;;;;;;;18.85;12.60;;;5.40;99.90;;;;;;5012503;28;20160;-70
2022/11/17 05:50:59;;;;;;;19.50;13.23;;;5.40;99.90;;;;;;5012130;28;20119;-70
2022/11/17 05:53:25;;;;;;;20.58;13.02;;;5.40;99.90;;;;;;5008468;28;20053;-71
2022/11/17 05:55:59;;;;;;;22.98;14.48;;;5.40;99.90;;;;;;5011659;28;20484;-70
2022/11/17 05:58:26;;;;;;;22.38;14.70;;;5.40;99.90;;;;;;4980107;28;20041;-71
2022/11/17 06:00:52;;;;;;;22.45;15.20;;;5.40;99.90;;;;;;5011389;28;20099;-69
2022/11/17 06:03:21;;;;;;;21.65;14.55;;;5.40;99.90;;;;;;5011699;28;20049;-70
2022/11/17 06:05:47;;;;;;;20.40;13.73;;;5.30;99.90;;;;;;5012813;28;20061;-70
2022/11/17 06:08:13;;;;;;;21.10;13.70;;;5.40;99.90;;;;;;5007868;28;20047;-70
2022/11/17 06:10:39;;;;;;;21.50;14.30;;;5.40;99.90;;;;;;5032757;28;20054;-70
2022/11/17 06:13:04;;;;;;;22.38;13.77;;;5.40;99.90;;;;;;5011350;28;20050;-70
2022/11/17 06:15:30;;;;;;;20.67;14.15;;;5.20;99.90;;;;;;4994918;28;20100;-70
2022/11/17 06:18:02;;;;;;;21.30;14.38;;;5.30;99.90;;;;;;4994577;28;20695;-69
2022/11/17 06:20:34;;;;;;;24.23;16.52;;;5.30;99.90;;;;;;5012438;28;20038;-69
2022/11/17 06:23:01;;;;;;;25.23;15.57;;;5.30;99.90;;;;;;5007278;28;20133;-69
2022/11/17 06:25:27;;;;;;;23.13;16.42;;;5.40;99.90;;;;;;4990445;28;20509;-69
2022/11/17 06:27:53;;;;;;;22.98;15.77;;;5.40;99.90;;;;;;5009762;28;20049;-70
2022/11/17 06:30:19;;;;;;;27.38;17.13;;;5.50;99.90;;;;;;4990764;28;20145;-69
2022/11/17 06:32:46;;;;;;;24.13;16.25;;;5.40;99.90;;;;;;4988698;28;20729;-70
2022/11/17 06:35:12;;;;;;;22.92;15.07;;;5.30;99.90;;;;;;5014630;28;20050;-70
2022/11/17 06:37:38;;;;;;;23.00;15.90;;;5.20;99.90;;;;;;5040348;28;20056;-70
2022/11/17 06:40:04;;;;;;;23.63;15.70;;;5.20;99.90;;;;;;5008744;28;20045;-70
2022/11/17 06:45:14;;;;;;;23.40;15.77;;;5.20;99.90;;;;;;5010347;28;20140;-70
2022/11/17 06:47:40;;;;;;;23.63;16.15;;;5.30;99.90;;;;;;5008892;28;20168;-70
2022/11/17 06:50:06;;;;;;;24.58;16.05;;;5.20;99.90;;;;;;5011224;28;20085;-70
2022/11/17 06:52:31;;;;;;;23.15;15.75;;;5.40;99.90;;;;;;4991411;28;20457;-70
2022/11/17 06:54:57;;;;;;;25.05;15.27;;;5.30;99.90;;;;;;5022610;28;20052;-69
2022/11/17 06:57:23;;;;;;;23.95;15.80;;;5.20;99.90;;;;;;5010028;28;20046;-69
2022/11/17 06:59:51;;;;;;;24.45;16.45;;;5.20;99.90;;;;;;5009474;28;20056;-70
2022/11/17 07:02:18;;;;;;;28.25;17.98;;;5.30;99.90;;;;;;4994727;28;20073;-70
2022/11/17 07:04:44;;;;;;;28.57;17.83;;;5.20;99.90;;;;;;5007388;28;20137;-70
2022/11/17 07:07:11;;;;;;;25.63;16.30;;;5.30;99.90;;;;;;4992243;28;20050;-69
2022/11/17 07:09:37;;;;;;;24.17;16.73;;;5.10;99.90;;;;;;5004975;28;20060;-69
2022/11/17 07:12:03;;;;;;;24.65;15.85;;;5.10;99.90;;;;;;5009489;28;20053;-69
2022/11/17 07:14:28;;;;;;;26.83;17.55;;;5.10;99.90;;;;;;5008937;28;20054;-69
2022/11/17 07:16:54;;;;;;;25.83;18.13;;;5.10;99.90;;;;;;5006517;28;20101;-69
2022/11/17 07:19:47;;;;;;;26.00;17.17;;;5.10;99.90;;;;;;5005586;28;20045;-73
2022/11/17 07:22:13;;;;;;;25.17;15.95;;;4.90;99.90;;;;;;4994052;28;20042;-72
2022/11/17 07:24:38;;;;;;;25.20;17.17;;;4.90;99.90;;;;;;5007334;28;20057;-71
2022/11/17 07:27:05;;;;;;;25.73;15.80;;;5.00;99.90;;;;;;4992585;28;20074;-71
2022/11/17 07:29:31;;;;;;;22.27;15.55;;;5.00;99.90;;;;;;5009418;28;20058;-71
2022/11/17 07:31:57;;;;;;;25.85;16.20;;;4.90;99.90;;;;;;5007141;28;20053;-71
2022/11/17 07:34:22;;;;;;;25.67;17.02;;;4.90;99.90;;;;;;4989008;28;20460;-72
2022/11/17 07:36:48;;;;;;;26.17;17.15;;;4.90;99.90;;;;;;4993506;28;20169;-68
2022/11/17 07:39:14;;;;;;;27.02;16.45;;;4.90;99.90;;;;;;5010593;28;20116;-68
2022/11/17 07:41:40;;;;;;;25.85;16.42;;;4.90;99.90;;;;;;5006640;28;20138;-70
2022/11/17 07:44:06;;;;;;;23.27;15.20;;;4.90;99.90;;;;;;5009086;28;20187;-68
2022/11/17 07:46:32;;;;;;;24.92;15.95;;;4.80;99.90;;;;;;4989087;28;20092;-68
2022/11/17 07:48:58;;;;;;;23.17;15.50;;;4.90;99.90;;;;;;5007055;28;20188;-67
2022/11/17 07:51:23;;;;;;;22.80;15.05;;;5.00;99.90;;;;;;5008397;28;20050;-71
2022/11/17 07:53:49;;;;;;;24.55;16.40;;;5.00;99.90;;;;;;5008228;28;20045;-71
2022/11/17 07:56:15;;;;;;;26.52;15.75;;;5.10;99.90;;;;;;5008675;28;20050;-71
2022/11/17 07:58:41;;;;;;;24.83;16.02;;;5.00;99.90;;;;;;5008431;28;20050;-72
2022/11/17 08:01:13;;;;;;;25.30;16.27;;;5.10;99.90;;;;;;4976012;28;20753;-71
2022/11/17 08:03:39;;;;;;;25.38;17.00;;;5.20;99.90;;;;;;5025157;28;20503;-72
2022/11/17 08:06:06;;;;;;;26.27;15.40;;;5.10;99.90;;;;;;4992469;28;20408;-72
2022/11/17 08:08:32;;;;;;;23.20;15.48;;;5.00;99.90;;;;;;5007670;28;20486;-72
2022/11/17 08:11:08;;;;;;;22.88;15.00;;;5.00;99.90;;;;;;5008997;28;20054;-72
2022/11/17 08:13:34;;;;;;;22.92;14.95;;;4.90;99.90;;;;;;5019155;28;20116;-72
2022/11/17 08:16:00;;;;;;;25.05;15.90;;;4.90;99.90;;;;;;5006636;28;20113;-71
2022/11/17 08:18:26;;;;;;;24.20;15.85;;;4.80;99.90;;;;;;5005440;28;20047;-72
2022/11/17 08:20:58;;;;;;;21.92;15.38;;;4.80;99.90;;;;;;5039369;28;20463;-72
2022/11/17 08:23:24;;;;;;;20.73;14.27;;;4.90;99.90;;;;;;5004935;28;20050;-72
2022/11/17 08:25:50;;;;;;;20.08;13.55;;;5.00;99.90;;;;;;5006804;28;20052;-72
2022/11/17 08:28:16;;;;;;;22.00;14.25;;;5.00;99.90;;;;;;5008056;28;20436;-72
2022/11/17 08:30:43;;;;;;;18.33;13.35;;;5.10;99.90;;;;;;5009073;28;20423;-72
2022/11/17 08:33:08;;;;;;;21.52;13.40;;;5.00;99.90;;;;;;5008143;28;20084;-71
2022/11/17 08:35:34;;;;;;;21.05;13.93;;;5.00;99.90;;;;;;4990568;28;20082;-72
2022/11/17 08:38:00;;;;;;;18.75;12.85;;;5.00;99.90;;;;;;5004699;28;20400;-71
2022/11/17 08:40:26;;;;;;;19.92;13.40;;;4.90;99.90;;;;;;4991942;28;20049;-70
2022/11/17 08:42:53;;;;;;;17.20;11.57;;;5.00;99.90;;;;;;4991898;28;20077;-71
2022/11/17 08:45:19;;;;;;;20.43;12.03;;;4.90;99.90;;;;;;5006092;28;20046;-72
2022/11/17 08:47:44;;;;;;;18.70;12.88;;;4.90;99.90;;;;;;5008099;28;20454;-71
2022/11/17 08:50:10;;;;;;;17.35;11.40;;;4.90;99.90;;;;;;5008303;28;20413;-71
2022/11/17 08:52:36;;;;;;;16.52;10.65;;;5.00;99.90;;;;;;5001851;28;20061;-71
2022/11/17 08:55:04;;;;;;;19.00;11.15;;;5.00;99.90;;;;;;5008053;28;20139;-70
2022/11/17 08:57:30;;;;;;;16.73;10.30;;;4.90;99.90;;;;;;5007769;28;20345;-70
2022/11/17 08:59:56;;;;;;;16.80;10.88;;;4.90;99.90;;;;;;5008371;28;20045;-69
2022/11/17 09:02:22;;;;;;;17.83;9.93;;;5.00;99.90;;;;;;5006622;28;20167;-69
2022/11/17 09:04:49;;;;;;;15.25;9.50;;;5.00;99.90;;;;;;4992366;28;20059;-69
2022/11/17 09:07:15;;;;;;;17.23;10.65;;;5.00;99.90;;;;;;4989620;28;20104;-69
2022/11/17 09:09:40;;;;;;;14.38;9.65;;;5.10;99.90;;;;;;4990170;28;20049;-69
2022/11/17 09:12:06;;;;;;;14.38;9.27;;;5.10;99.90;;;;;;5007948;28;20107;-70
2022/11/17 09:14:32;;;;;;;16.70;9.95;;;5.00;99.90;;;;;;5006012;28;20046;-70
2022/11/17 09:16:58;;;;;;;14.30;10.38;;;5.00;99.90;;;;;;4991694;28;20451;-70
2022/11/17 09:19:23;;;;;;;15.75;10.55;;;5.10;99.90;;;;;;5004070;28;20276;-69
2022/11/17 09:21:49;;;;;;;13.98;9.82;;;5.10;99.90;;;;;;5007783;28;20061;-70
2022/11/17 09:24:15;;;;;;;15.80;10.15;;;5.20;99.90;;;;;;4987038;28;20046;-70
2022/11/17 09:26:41;;;;;;;14.60;9.73;;;5.10;99.90;;;;;;5007369;28;20108;-70
2022/11/17 09:29:07;;;;;;;16.67;11.25;;;5.10;99.90;;;;;;4974453;28;20046;-70
2022/11/17 09:31:33;;;;;;;16.15;10.55;;;5.00;99.90;;;;;;4990898;28;20494;-70
2022/11/17 09:33:59;;;;;;;17.05;10.75;;;5.10;99.90;;;;;;5006815;28;20054;-69
2022/11/17 09:36:25;;;;;;;16.25;10.45;;;5.10;99.90;;;;;;5006882;28;20049;-70
2022/11/17 09:38:50;;;;;;;17.10;10.85;;;5.10;99.90;;;;;;5008384;28;20462;-69
2022/11/17 09:41:26;;;;;;;15.52;10.50;;;5.10;99.90;;;;;;5007690;28;20053;-70
2022/11/17 09:44:14;;;;;;;15.88;9.73;;;5.10;99.90;;;;;;5007601;28;20049;-71
2022/11/17 09:46:39;;;;;;;14.20;10.00;;;5.10;99.90;;;;;;5005875;28;20060;-70
2022/11/17 09:49:33;;;;;;;16.08;9.75;;;5.10;99.90;;;;;;5008654;28;20049;-70
2022/11/17 09:52:16;;;;;;;15.60;10.02;;;5.10;99.90;;;;;;5007735;28;20101;-70
2022/11/17 09:54:48;;;;;;;14.02;9.98;;;5.10;99.90;;;;;;5009135;28;20443;-69
2022/11/17 09:57:40;;;;;;;14.02;8.80;;;5.10;99.90;;;;;;5007852;28;20053;-70
2022/11/17 10:00:18;;;;;;;13.35;8.63;;;5.10;99.90;;;;;;4986635;28;20133;-70
2022/11/17 10:02:44;;;;;;;15.77;9.55;;;5.20;99.90;;;;;;5007333;28;20041;-69
2022/11/17 10:05:24;;;;;;;14.57;9.05;;;5.10;99.90;;;;;;4990947;28;20521;-70
2022/11/17 10:07:51;;;;;;;14.30;8.73;;;5.20;99.90;;;;;;5000352;28;20488;-70
2022/11/17 10:10:20;;;;;;;12.80;8.55;;;5.10;99.90;;;;;;4974820;28;20386;-70
2022/11/17 10:12:49;;;;;;;11.70;8.35;;;5.20;99.90;;;;;;5002114;28;20108;-70
2022/11/17 10:15:48;;;;;;;11.68;7.63;;;5.20;99.90;;;;;;4988224;28;20093;-70
2022/11/17 10:18:14;;;;;;;12.38;7.95;;;5.20;99.90;;;;;;4983808;28;20042;-70
2022/11/17 10:20:41;;;;;;;11.13;7.25;;;5.30;99.90;;;;;;5005173;28;20468;-69
2022/11/17 10:23:13;;;;;;;12.27;7.55;;;5.20;99.90;;;;;;5010227;28;20141;-69
2022/11/17 10:25:46;;;;;;;10.90;7.22;;;5.30;99.90;;;;;;5010607;28;20100;-70
2022/11/17 10:28:27;;;;;;;9.13;6.20;;;5.40;99.90;;;;;;5010662;28;20042;-70
2022/11/17 10:30:55;;;;;;;10.18;6.68;;;5.30;99.90;;;;;;5007089;28;20427;-69
2022/11/17 10:33:38;;;;;;;10.13;6.85;;;5.30;99.90;;;;;;5009446;28;20049;-69
2022/11/17 10:36:20;;;;;;;10.05;6.63;;;5.30;99.90;;;;;;5020179;28;20037;-69
2022/11/17 10:38:47;;;;;;;10.05;6.40;;;5.30;99.90;;;;;;4995358;28;20042;-70
2022/11/17 10:41:21;;;;;;;10.25;6.60;;;5.30;99.90;;;;;;5008877;28;20045;-70
2022/11/17 10:44:03;;;;;;;9.23;6.25;;;5.30;99.90;;;;;;5023784;28;20052;-70
2022/11/17 10:46:28;;;;;;;10.45;6.45;;;5.30;99.90;;;;;;5010544;28;20064;-69
2022/11/17 10:48:59;;;;;;;8.90;5.53;;;5.40;99.90;;;;;;5008889;28;20054;-69
2022/11/17 10:51:35;;;;;;;8.20;5.55;;;5.30;99.90;;;;;;5010825;28;20053;-70
2022/11/17 10:54:15;;;;;;;8.23;6.03;;;5.40;99.90;;;;;;5006190;28;20638;-71
2022/11/17 10:56:43;;;;;;;7.45;4.93;;;5.40;99.90;;;;;;5010800;28;20046;-71
2022/11/17 10:59:08;;;;;;;8.98;5.75;;;5.30;99.90;;;;;;5009828;28;20042;-71
2022/11/17 11:01:39;;;;;;;7.55;5.57;;;5.40;99.90;;;;;;5009119;28;20390;-70
2022/11/17 11:04:06;;;;;;;8.55;5.45;;;5.40;99.90;;;;;;5010091;28;20387;-71
2022/11/17 11:06:32;;;;;;;9.90;5.70;;;5.40;99.90;;;;;;5009285;28;20104;-71
2022/11/17 11:09:09;;;;;;;9.85;6.40;;;5.40;99.90;;;;;;5009550;28;20133;-71
2022/11/17 11:11:48;;;;;;;8.60;5.95;;;5.40;99.90;;;;;;4977420;28;20435;-71
2022/11/17 11:14:23;;;;;;;9.35;6.05;;;5.30;99.90;;;;;;5009508;28;20048;-70
2022/11/17 11:16:49;;;;;;;9.43;6.43;;;5.40;99.90;;;;;;5010479;28;20061;-71
2022/11/17 11:19:16;;;;;;;10.07;5.57;;;5.50;99.90;;;;;;5009994;28;20398;-70
2022/11/17 11:22:23;;;;;;;7.53;4.95;;;5.50;99.90;;;;;;5008357;28;20046;-70
2022/11/17 11:25:19;;;;;;;8.63;5.60;;;5.50;99.90;;;;;;5008496;28;20050;-71
2022/11/17 11:28:16;;;;;;;6.80;4.88;;;5.60;99.90;;;;;;5009720;28;20069;-71
2022/11/17 11:31:06;;;;;;;7.70;4.60;;;5.40;99.90;;;;;;5009195;28;20377;-70
2022/11/17 11:33:36;;;;;;;7.68;4.55;;;5.50;99.90;;;;;;5016876;28;20053;-70
2022/11/17 11:36:13;;;;;;;6.43;4.53;;;5.50;99.90;;;;;;5008846;28;20073;-71
2022/11/17 11:38:56;;;;;;;6.63;4.57;;;5.60;99.90;;;;;;5009528;28;20041;-70
2022/11/17 11:41:57;;;;;;;5.93;4.22;;;5.50;99.90;;;;;;5008133;28;20352;-71
2022/11/17 11:44:34;;;;;;;7.80;4.07;;;5.50;99.90;;;;;;4990489;28;20803;-68
2022/11/17 11:47:06;;;;;;;5.97;4.38;;;5.60;99.90;;;;;;5020603;28;20053;-69
2022/11/17 11:49:39;;;;;;;5.38;3.55;;;5.60;99.90;;;;;;5025476;28;20133;-69
2022/11/17 11:52:09;;;;;;;7.30;4.43;;;5.60;99.90;;;;;;5002181;28;20073;-69
2022/11/17 11:54:52;;;;;;;7.57;4.57;;;5.70;99.90;;;;;;5008906;28;20049;-69
2022/11/17 11:57:21;;;;;;;6.95;4.20;;;5.70;99.90;;;;;;5007560;28;20046;-69
2022/11/17 11:59:48;;;;;;;6.15;4.47;;;5.70;99.90;;;;;;5009292;28;20053;-69
2022/11/17 12:02:21;;;;;;;5.45;3.92;;;5.70;99.90;;;;;;5009804;28;20117;-69
2022/11/17 12:05:03;;;;;;;5.65;4.15;;;5.70;99.90;;;;;;4986741;28;20477;-69
2022/11/17 12:07:34;;;;;;;5.82;3.65;;;5.70;99.90;;;;;;5010507;28;20049;-70
2022/11/17 12:10:23;;;;;;;8.93;4.50;;;5.70;99.90;;;;;;4992749;28;20073;-69
2022/11/17 12:12:48;;;;;;;6.10;4.35;;;5.70;99.90;;;;;;5006468;28;20053;-69
2022/11/17 12:15:17;;;;;;;5.97;4.50;;;5.80;99.90;;;;;;5008466;28;20108;-69
2022/11/17 12:18:04;;;;;;;5.45;3.70;;;5.80;99.90;;;;;;5008481;28;20050;-69
2022/11/17 12:20:30;;;;;;;7.20;3.92;;;5.80;99.90;;;;;;5007319;28;20049;-70
2022/11/17 12:23:04;;;;;;;5.53;4.10;;;5.90;99.90;;;;;;5009358;28;20451;-70
2022/11/17 12:25:31;;;;;;;4.70;3.83;;;5.80;99.90;;;;;;5008435;28;20052;-65
2022/11/17 12:27:57;;;;;;;5.70;3.88;;;5.80;99.90;;;;;;4976109;28;20049;-64
2022/11/17 12:30:32;;;;;;;5.80;4.47;;;5.90;99.90;;;;;;5008249;28;20297;-65
2022/11/17 12:33:04;;;;;;;6.15;4.93;;;5.80;99.90;;;;;;5007526;28;20116;-64
2022/11/17 12:35:31;;;;;;;6.70;4.72;;;5.80;99.90;;;;;;4991939;28;20403;-64
2022/11/17 12:38:15;;;;;;;5.65;3.83;;;5.80;99.90;;;;;;5008388;28;20053;-65
2022/11/17 12:40:44;;;;;;;6.35;4.43;;;5.80;99.90;;;;;;5005823;28;20042;-64
2022/11/17 12:43:26;;;;;;;6.28;4.75;;;5.80;99.90;;;;;;5008284;28;20054;-66
2022/11/17 12:45:58;;;;;;;6.00;4.57;;;5.80;99.90;;;;;;5007349;28;20046;-64
2022/11/17 12:48:33;;;;;;;7.72;4.53;;;5.90;99.90;;;;;;5008657;28;20536;-64
2022/11/17 12:51:21;;;;;;;6.32;4.55;;;5.90;99.90;;;;;;5006087;28;20725;-64
2022/11/17 12:54:09;;;;;;;6.63;4.50;;;5.90;99.90;;;;;;5008468;28;20370;-65
2022/11/17 12:56:59;;;;;;;4.72;4.00;;;5.90;99.90;;;;;;5008106;28;20042;-65
2022/11/17 12:59:44;;;;;;;5.63;3.85;;;5.90;99.90;;;;;;5009975;28;20744;-65
2022/11/17 13:02:40;;;;;;;5.70;4.07;;;5.90;99.90;;;;;;5006832;28;20042;-65
2022/11/17 13:05:17;;;;;;;6.10;4.75;;;5.90;99.90;;;;;;5036232;28;20053;-65
2022/11/17 13:07:43;;;;;;;5.95;4.35;;;5.80;99.90;;;;;;5006005;28;20087;-65
2022/11/17 13:10:26;;;;;;;5.07;4.03;;;5.80;99.90;;;;;;4991235;28;20658;-66
2022/11/17 13:13:20;;;;;;;5.60;4.57;;;5.90;99.90;;;;;;5007934;28;20618;-65
2022/11/17 13:15:57;;;;;;;6.47;4.70;;;5.90;99.90;;;;;;4992083;28;20504;-65
2022/11/17 13:18:36;;;;;;;5.43;4.30;;;5.90;99.90;;;;;;5023981;28;20038;-65
2022/11/17 13:21:02;;;;;;;6.82;4.88;;;5.90;99.90;;;;;;5007888;28;20053;-64
2022/11/17 13:23:31;;;;;;;6.20;4.63;;;5.80;99.90;;;;;;5006095;28;20046;-64
2022/11/17 13:26:15;;;;;;;7.10;4.63;;;5.90;99.90;;;;;;4975468;28;20042;-65
2022/11/17 13:28:41;;;;;;;6.43;4.93;;;5.80;99.90;;;;;;5006271;28;20038;-64
2022/11/17 13:31:22;;;;;;;7.45;4.57;;;5.90;99.90;;;;;;5007653;28;20057;-64
2022/11/17 13:34:06;;;;;;;6.22;5.20;;;5.90;99.90;;;;;;4975554;28;20069;-63
2022/11/17 13:36:32;;;;;;;7.93;5.03;;;5.90;99.90;;;;;;4990198;28;20375;-64
2022/11/17 13:41:55;;;;;;;;;;;5.90;99.90;;;;;;4996736;28;20049;-64
2022/11/17 13:44:22;;;;;;;8.55;6.32;;;5.90;99.90;;;;;;5007922;28;19913;-64